^^
Station Historical Data
Daily Summary for November 29, 2017 Units:  Metric    English   Both
« Previous Day
Next Day »
Daily Weekly Monthly Yearly Custom
  High: Low: Average:
Temperature: 37.3 °C 22.1 °C 32.4 °C
Dew Point: 6.4 °C -2.9 °C 1.3 °C
Humidity: 36% 8% 16%
Wind Speed: 41.7km/h 0km/h 13.5km/h
Wind Gust: 46.7km/h - -
Wind- - SSW
Pressure: 1010 hPa 1005.6 hPa -
Precipitation: 0 mm    
Historical Graphs
 
 
Tabular Data for November 29, 2017
Time Temperature Dew Point Pressure Wind Wind Speed Wind Gust Humidity Rainfall Rate (Hourly) solar Conditions
08:23 22.1 °C 6.3 °C 1010 hPa SW 4.7 km/h 6.4 km/h 36% 0 mm 461.0 W/m2
08:32 22.6 °C 6.4 °C 1010 hPa Calm     35% 0 mm 494.0 W/m2
08:45 23.3 °C 6.1 °C 1010 hPa Calm     33% 0 mm 545.0 W/m2
08:55 23.7 °C 6 °C 1010 hPa Calm     32% 0 mm 580.0 W/m2
09:00 24 °C 6.3 °C 1010 hPa Calm     32% 0 mm 596.0 W/m2
09:09 24.2 °C 6 °C 1010 hPa Calm   6.4 km/h 31% 0 mm 612.0 W/m2
10:33 28.5 °C 4.7 °C 1010 hPa SSE 4.7 km/h 9.7 km/h 22% 0 mm 858.0 W/m2
11:19 30.4 °C 4.2 °C 1009.4 hPa Calm     19% 0 mm 912.0 W/m2
11:34 31.2 °C 2.4 °C 1009.4 hPa SSW 11.1 km/h 11.3 km/h 16% 0 mm 935.0 W/m2
11:40 31.2 °C 2.4 °C 1009.4 hPa SSW 11.1 km/h 11.3 km/h 16% 0 mm 935.0 W/m2
12:15 32.5 °C 1.6 °C 1009 hPa SSW 7.9 km/h 16.1 km/h 14% 0 mm 963.0 W/m2
12:24 33.3 °C 2.2 °C 1008.7 hPa SW 14.3 km/h 14.5 km/h 14% 0 mm 969.0 W/m2
12:39 34.1 °C 1.8 °C 1008.4 hPa SW 6.4 km/h 14.5 km/h 13% 0 mm 969.0 W/m2
12:45 34.1 °C 1.8 °C 1008.4 hPa SW 6.4 km/h 14.5 km/h 13% 0 mm 969.0 W/m2
12:54 34.1 °C 0.7 °C 1008.4 hPa Calm   1.6 km/h 12% 0 mm 969.0 W/m2
13:02 34.1 °C 0.7 °C 1008.4 hPa Calm   1.6 km/h 12% 0 mm 969.0 W/m2
13:47 35.1 °C -1.1 °C 1007.7 hPa Calm   14.5 km/h 10% 0 mm 937.0 W/m2
13:55 35.8 °C -2 °C 1007.3 hPa Calm   19.3 km/h 9% 0 mm 919.0 W/m2
14:10 35.7 °C -2.1 °C 1007.3 hPa WSW 9.7 km/h 17.7 km/h 9% 0 mm 895.0 W/m2
14:25 36.2 °C -1.7 °C 1007 hPa WSW 20.9 km/h 20.9 km/h 9% 0 mm 868.0 W/m2
14:40 36.7 °C -2.9 °C 1006.7 hPa SW 13 km/h 20.9 km/h 8% 0 mm 842.0 W/m2
15:17 36.3 °C -0.2 °C 1006.3 hPa SSW 3.2 km/h 8 km/h 10% 0 mm 770.0 W/m2
15:26 36.9 °C -1.2 °C 1006 hPa SSW 19.5 km/h 22.5 km/h 9% 0 mm 729.0 W/m2
15:47 37.1 °C -1 °C 1005.6 hPa South 9.7 km/h 16.1 km/h 9% 0 mm 689.0 W/m2
16:02 37.3 °C -0.9 °C 1005.6 hPa SSW 14.3 km/h 17.7 km/h 9% 0 mm 647.0 W/m2
16:17 37.2 °C -0.9 °C 1005.6 hPa South 19.5 km/h 30.6 km/h 9% 0 mm 598.0 W/m2
16:32 36.8 °C 0.2 °C 1005.6 hPa South 28.8 km/h 30.6 km/h 10% 0 mm 548.0 W/m2
16:47 36.2 °C 2.3 °C 1005.6 hPa SSW 25.9 km/h 38.6 km/h 12% 0 mm 499.0 W/m2
17:02 35.2 °C 0.3 °C 1005.6 hPa SW 27.4 km/h 40.2 km/h 11% 0 mm 448.0 W/m2
17:12 34.2 °C -0.5 °C 1006.3 hPa SSW 41.7 km/h 46.7 km/h 11% 0 mm 397.0 W/m2
17:17 34.2 °C -0.5 °C 1006.3 hPa SSW 41.7 km/h 46.7 km/h 11% 0 mm 397.0 W/m2
17:27 33.3 °C 0 °C 1006.3 hPa SW 30.6 km/h 45.1 km/h 12% 0 mm 345.0 W/m2
17:57 32.7 °C -0.4 °C 1006.3 hPa SSW 28.8 km/h 38.6 km/h 12% 0 mm 260.0 W/m2
18:12 32.6 °C -0.5 °C 1006.7 hPa SSW 40.4 km/h 41.8 km/h 12% 0 mm 204.0 W/m2
18:23 32 °C -1 °C 1007 hPa SSW 30.6 km/h 33.8 km/h 12% 0 mm 148.0 W/m2
Canyon Roadhouse, Fishriver Canyon, Namibia
Compliments of Weather Underground - 1.75 mb